Time;durP1;ratioP1;P1;durP2;ratioP2;P2;SDS_P1;SDS_P2;PMS_P1;PMS_P2;Temp;Humidity;BMP_temperature;BMP_pressure;BME280_temperature;BME280_humidity;BME280_pressure;Samples;Min_cycle;Max_cycle;Signal;HPM_P1;HPM_P2
2022/10/08 00:00:42;;;;;;;;;5.00;2.75;;;;;;;;5017122;28;46454;-68
2022/10/08 00:03:08;;;;;;;;;5.00;3.75;;;;;;;;5016949;28;45404;-67
2022/10/08 00:05:33;;;;;;;;;6.00;4.75;;;;;;;;5017392;28;45357;-67
2022/10/08 00:07:58;;;;;;;;;6.25;2.00;;;;;;;;5017298;28;45592;-67
2022/10/08 00:10:23;;;;;;;;;2.50;2.50;;;;;;;;5016880;28;46527;-67
2022/10/08 00:12:49;;;;;;;;;4.00;2.00;;;;;;;;5017064;28;45462;-67
2022/10/08 00:15:14;;;;;;;;;3.00;3.00;;;;;;;;5016153;28;45302;-67
2022/10/08 00:17:39;;;;;;;;;5.00;3.00;;;;;;;;5017275;28;45408;-67
2022/10/08 00:20:04;;;;;;;;;4.50;3.00;;;;;;;;5016544;28;46756;-67
2022/10/08 00:22:30;;;;;;;;;5.00;3.50;;;;;;;;5016828;28;45472;-67
2022/10/08 00:24:55;;;;;;;;;2.25;2.00;;;;;;;;5017101;28;45290;-68
2022/10/08 00:27:22;;;;;;;;;2.25;2.25;;;;;;;;5016999;28;45409;-68
2022/10/08 00:29:48;;;;;;;;;3.00;3.00;;;;;;;;5016754;28;46783;-67
2022/10/08 00:32:13;;;;;;;;;4.00;1.00;;;;;;;;5003070;28;45461;-68
2022/10/08 00:34:38;;;;;;;;;2.75;2.75;;;;;;;;4997077;28;45532;-68
2022/10/08 00:37:04;;;;;;;;;1.75;1.75;;;;;;;;5008085;28;45841;-69
2022/10/08 00:39:29;;;;;;;;;7.00;4.25;;;;;;;;5016276;28;46591;-69
2022/10/08 00:41:55;;;;;;;;;3.75;2.00;;;;;;;;5016175;28;45364;-69
2022/10/08 00:44:38;;;;;;;;;3.75;2.00;;;;;;;;5017200;28;45495;-69
2022/10/08 00:47:04;;;;;;;;;2.75;2.75;;;;;;;;5016587;28;45726;-69
2022/10/08 00:49:29;;;;;;;;;3.00;2.00;;;;;;;;5017096;28;46746;-68
2022/10/08 00:51:55;;;;;;;;;5.00;3.00;;;;;;;;5016826;28;45341;-69
2022/10/08 00:54:21;;;;;;;;;1.00;1.00;;;;;;;;5016768;28;45342;-69
2022/10/08 00:56:50;;;;;;;;;2.75;2.00;;;;;;;;5016958;28;45541;-70
2022/10/08 00:59:15;;;;;;;;;3.00;1.00;;;;;;;;5019198;28;47655;-69
2022/10/08 01:01:42;;;;;;;;;2.00;2.00;;;;;;;;5036746;28;45537;-70
2022/10/08 01:04:08;;;;;;;;;3.00;1.75;;;;;;;;5023768;28;45286;-70
2022/10/08 01:06:42;;;;;;;;;2.00;2.00;;;;;;;;5016510;28;45404;-69
2022/10/08 01:09:07;;;;;;;;;1.75;1.25;;;;;;;;5017101;28;46547;-69
2022/10/08 01:11:39;;;;;;;;;2.50;1.50;;;;;;;;5016471;28;45514;-68
2022/10/08 01:14:10;;;;;;;;;1.75;1.00;;;;;;;;5016612;28;45421;-70
2022/10/08 01:17:01;;;;;;;;;1.25;1.00;;;;;;;;5017132;28;45475;-68
2022/10/08 01:19:30;;;;;;;;;3.00;2.00;;;;;;;;5015473;28;45667;-69
2022/10/08 01:22:07;;;;;;;;;2.75;1.75;;;;;;;;5015745;28;45516;-69
2022/10/08 01:27:42;;;;;;;;;2.00;2.00;;;;;;;;5019954;28;45271;-69
2022/10/08 01:30:10;;;;;;;;;1.00;1.00;;;;;;;;5000850;28;46598;-68
2022/10/08 01:32:56;;;;;;;;;1.00;1.00;;;;;;;;5019755;28;45417;-68
2022/10/08 01:35:32;;;;;;;;;4.00;1.00;;;;;;;;5019318;28;45562;-69
2022/10/08 01:38:05;;;;;;;;;1.00;0.75;;;;;;;;5019175;28;46135;-69
2022/10/08 01:40:34;;;;;;;;;2.00;0.25;;;;;;;;5019955;28;46606;-68
2022/10/08 01:43:00;;;;;;;;;1.75;1.75;;;;;;;;5020024;28;45272;-68
2022/10/08 01:45:30;;;;;;;;;0.25;0.25;;;;;;;;5020109;28;45254;-68
2022/10/08 01:47:56;;;;;;;;;1.00;1.00;;;;;;;;5019851;28;45325;-70
2022/10/08 01:50:27;;;;;;;;;1.00;1.00;;;;;;;;5019791;28;45716;-70
2022/10/08 01:52:55;;;;;;;;;2.25;1.00;;;;;;;;5019522;28;45255;-68
2022/10/08 01:55:46;;;;;;;;;1.25;1.00;;;;;;;;5018833;28;45401;-68
2022/10/08 01:58:18;;;;;;;;;1.00;0.75;;;;;;;;5018898;28;45363;-70
2022/10/08 02:00:44;;;;;;;;;3.00;1.00;;;;;;;;5019527;28;46607;-68
2022/10/08 02:03:12;;;;;;;;;2.00;1.00;;;;;;;;5019192;28;45369;-69
2022/10/08 02:05:42;;;;;;;;;1.25;0.75;;;;;;;;5019443;28;45431;-68
2022/10/08 02:08:07;;;;;;;;;0.75;0.75;;;;;;;;5019868;28;45405;-69
2022/10/08 02:10:32;;;;;;;;;2.50;0.50;;;;;;;;5019592;28;46478;-69
2022/10/08 02:12:58;;;;;;;;;2.00;0.50;;;;;;;;5017973;28;45431;-68
2022/10/08 02:15:40;;;;;;;;;0.00;0.00;;;;;;;;5019856;28;45410;-69
2022/10/08 02:18:17;;;;;;;;;0.75;0.75;;;;;;;;5019164;28;45483;-69
2022/10/08 02:20:42;;;;;;;;;1.00;0.25;;;;;;;;5019255;28;46901;-69
2022/10/08 02:23:07;;;;;;;;;1.25;1.00;;;;;;;;5019238;28;45246;-69
2022/10/08 02:25:37;;;;;;;;;2.75;1.00;;;;;;;;5019566;28;45243;-69
2022/10/08 02:28:23;;;;;;;;;3.00;0.00;;;;;;;;5019421;28;45461;-69
2022/10/08 02:30:53;;;;;;;;;1.00;1.00;;;;;;;;5017900;28;45358;-69
2022/10/08 02:33:29;;;;;;;;;0.00;0.00;;;;;;;;5018734;28;45183;-69
2022/10/08 02:35:56;;;;;;;;;3.25;2.00;;;;;;;;5019385;28;45311;-69
2022/10/08 02:38:23;;;;;;;;;3.00;1.00;;;;;;;;5018522;28;45433;-69
2022/10/08 02:40:51;;;;;;;;;3.00;2.00;;;;;;;;5018878;28;46497;-68
2022/10/08 02:43:19;;;;;;;;;3.00;1.25;;;;;;;;5018775;28;45290;-69
2022/10/08 02:45:49;;;;;;;;;2.00;0.25;;;;;;;;5017791;28;45221;-68
2022/10/08 02:48:19;;;;;;;;;1.25;0.25;;;;;;;;5019021;28;45419;-69
2022/10/08 02:50:47;;;;;;;;;1.00;1.00;;;;;;;;5018883;28;46248;-69
2022/10/08 02:53:17;;;;;;;;;3.00;1.50;;;;;;;;5018375;28;45408;-69
2022/10/08 02:55:53;;;;;;;;;0.50;0.00;;;;;;;;5019016;28;45520;-69
2022/10/08 02:58:19;;;;;;;;;3.25;1.00;;;;;;;;5019091;28;45435;-70
2022/10/08 03:00:50;;;;;;;;;1.50;1.00;;;;;;;;5017046;28;46997;-69
2022/10/08 03:03:19;;;;;;;;;1.75;1.00;;;;;;;;5018093;28;45501;-70
2022/10/08 03:05:47;;;;;;;;;1.50;1.00;;;;;;;;5018954;28;45312;-69
2022/10/08 03:08:13;;;;;;;;;1.00;1.00;;;;;;;;5018644;28;45440;-69
2022/10/08 03:10:40;;;;;;;;;6.00;1.00;;;;;;;;5018376;28;45320;-68
2022/10/08 03:13:06;;;;;;;;;1.25;0.75;;;;;;;;5018606;28;45389;-69
2022/10/08 03:15:32;;;;;;;;;2.00;1.00;;;;;;;;5018795;28;45353;-68
2022/10/08 03:17:59;;;;;;;;;0.50;0.50;;;;;;;;5017692;28;45417;-70
2022/10/08 03:20:25;;;;;;;;;2.75;2.00;;;;;;;;5018130;28;46278;-69
2022/10/08 03:22:52;;;;;;;;;0.75;0.00;;;;;;;;5018056;28;45460;-69
2022/10/08 03:25:17;;;;;;;;;3.00;1.00;;;;;;;;5018209;28;45443;-69
2022/10/08 03:27:42;;;;;;;;;2.25;2.00;;;;;;;;5018359;28;45243;-68
2022/10/08 03:30:08;;;;;;;;;3.25;1.00;;;;;;;;5018348;28;45390;-69
2022/10/08 03:32:33;;;;;;;;;3.00;1.25;;;;;;;;5016583;28;45493;-69
2022/10/08 03:34:58;;;;;;;;;4.50;1.75;;;;;;;;5018145;28;45199;-68
2022/10/08 03:37:24;;;;;;;;;1.75;1.00;;;;;;;;5018538;28;45378;-69
2022/10/08 03:39:49;;;;;;;;;4.50;2.00;;;;;;;;5018127;28;46575;-69
2022/10/08 03:42:14;;;;;;;;;1.00;1.00;;;;;;;;5018246;28;45458;-69
2022/10/08 03:44:39;;;;;;;;;2.25;1.00;;;;;;;;5018192;28;45317;-70
2022/10/08 03:47:04;;;;;;;;;3.25;1.00;;;;;;;;5018295;28;45440;-69
2022/10/08 03:49:30;;;;;;;;;5.00;1.50;;;;;;;;5016542;28;46435;-68
2022/10/08 03:51:55;;;;;;;;;3.00;3.00;;;;;;;;5017809;28;45430;-69
2022/10/08 03:54:20;;;;;;;;;1.25;1.00;;;;;;;;5018397;28;45376;-69
2022/10/08 03:56:45;;;;;;;;;3.50;2.00;;;;;;;;5017618;28;45229;-70
2022/10/08 03:59:11;;;;;;;;;2.75;2.00;;;;;;;;5017918;28;46284;-69
2022/10/08 04:01:36;;;;;;;;;2.50;1.00;;;;;;;;5017445;28;45464;-69
2022/10/08 04:04:01;;;;;;;;;2.00;2.00;;;;;;;;5017666;28;45279;-69
2022/10/08 04:06:26;;;;;;;;;1.75;1.75;;;;;;;;5017081;28;45332;-69
2022/10/08 04:08:52;;;;;;;;;2.00;1.00;;;;;;;;5017465;28;46263;-68
2022/10/08 04:11:18;;;;;;;;;5.50;1.00;;;;;;;;5017527;28;45449;-69
2022/10/08 04:13:43;;;;;;;;;3.50;1.00;;;;;;;;5017965;28;45366;-68
2022/10/08 04:16:15;;;;;;;;;1.00;1.00;;;;;;;;5017908;28;45552;-68
2022/10/08 04:18:41;;;;;;;;;1.75;1.75;;;;;;;;5017542;28;46321;-68
2022/10/08 04:21:07;;;;;;;;;2.00;2.00;;;;;;;;5017427;28;45309;-68
2022/10/08 04:23:33;;;;;;;;;0.50;0.50;;;;;;;;5015529;28;45343;-68
2022/10/08 04:25:59;;;;;;;;;1.00;1.00;;;;;;;;5017633;28;45411;-68
2022/10/08 04:28:24;;;;;;;;;4.75;0.25;;;;;;;;5017199;28;45517;-67
2022/10/08 04:30:56;;;;;;;;;2.75;2.50;;;;;;;;5017665;28;45176;-69
2022/10/08 04:33:21;;;;;;;;;4.25;2.00;;;;;;;;5017761;28;45381;-68
2022/10/08 04:35:46;;;;;;;;;2.00;1.00;;;;;;;;5017209;28;45332;-68
2022/10/08 04:38:11;;;;;;;;;2.75;2.50;;;;;;;;5017302;28;46365;-69
2022/10/08 04:40:36;;;;;;;;;6.50;2.00;;;;;;;;5016131;28;45712;-68
2022/10/08 04:43:02;;;;;;;;;3.00;1.25;;;;;;;;5017485;28;45417;-68
2022/10/08 04:45:27;;;;;;;;;3.75;1.50;;;;;;;;5017557;28;45432;-68
2022/10/08 04:47:52;;;;;;;;;4.00;2.50;;;;;;;;5017030;28;47490;-69
2022/10/08 04:50:17;;;;;;;;;2.00;2.00;;;;;;;;5016243;28;45400;-69
2022/10/08 04:52:43;;;;;;;;;6.00;2.00;;;;;;;;5017161;28;45316;-69
2022/10/08 04:55:08;;;;;;;;;4.00;2.25;;;;;;;;5017565;28;45310;-68
2022/10/08 04:57:33;;;;;;;;;1.25;0.75;;;;;;;;5015370;28;46243;-69
2022/10/08 04:59:58;;;;;;;;;5.25;2.50;;;;;;;;5016784;28;45478;-69
2022/10/08 05:02:23;;;;;;;;;3.75;2.00;;;;;;;;5020495;28;45353;-69
2022/10/08 05:04:49;;;;;;;;;4.50;2.00;;;;;;;;5024796;28;45438;-68
2022/10/08 05:07:14;;;;;;;;;2.50;1.25;;;;;;;;5029076;28;46322;-68
2022/10/08 05:09:39;;;;;;;;;3.25;2.00;;;;;;;;5020449;28;45351;-69
2022/10/08 05:12:04;;;;;;;;;3.00;3.00;;;;;;;;5020196;28;45601;-69
2022/10/08 05:14:30;;;;;;;;;9.25;5.00;;;;;;;;5019317;28;45950;-69
2022/10/08 05:16:55;;;;;;;;;6.00;3.00;;;;;;;;5020072;28;46235;-69
2022/10/08 05:19:20;;;;;;;;;4.50;2.50;;;;;;;;5020501;28;45340;-69
2022/10/08 05:21:45;;;;;;;;;3.25;3.25;;;;;;;;5020312;28;45444;-69
2022/10/08 05:24:11;;;;;;;;;4.25;3.00;;;;;;;;5020321;28;45326;-69
2022/10/08 05:26:37;;;;;;;;;4.50;1.50;;;;;;;;5020404;28;45311;-68
2022/10/08 05:29:02;;;;;;;;;4.00;2.00;;;;;;;;5020101;28;45366;-69
2022/10/08 05:31:28;;;;;;;;;6.75;3.00;;;;;;;;5018611;28;45258;-69
2022/10/08 05:33:54;;;;;;;;;3.75;2.25;;;;;;;;5020374;28;45299;-68
2022/10/08 05:36:26;;;;;;;;;7.25;7.00;;;;;;;;5019159;28;45310;-68
2022/10/08 05:38:51;;;;;;;;;3.00;3.00;;;;;;;;5019828;28;45291;-68
2022/10/08 05:41:17;;;;;;;;;4.00;3.00;;;;;;;;5020089;28;45915;-69
2022/10/08 05:43:42;;;;;;;;;5.00;3.00;;;;;;;;5020471;28;45398;-68
2022/10/08 05:46:08;;;;;;;;;5.50;4.50;;;;;;;;5018804;28;47287;-69
2022/10/08 05:48:33;;;;;;;;;7.75;3.25;;;;;;;;5019765;28;45421;-68
2022/10/08 05:51:04;;;;;;;;;4.75;3.00;;;;;;;;5019926;28;45370;-68
2022/10/08 05:53:30;;;;;;;;;4.25;2.00;;;;;;;;5019973;28;45395;-69
2022/10/08 05:56:02;;;;;;;;;4.50;4.00;;;;;;;;5016976;28;47201;-69
2022/10/08 05:58:28;;;;;;;;;4.25;2.25;;;;;;;;4999908;28;45350;-69
2022/10/08 06:00:59;;;;;;;;;5.00;4.00;;;;;;;;4999813;28;45256;-69
2022/10/08 06:03:25;;;;;;;;;4.25;2.75;;;;;;;;5013107;28;45606;-70
2022/10/08 06:05:50;;;;;;;;;5.00;2.00;;;;;;;;5015167;28;46176;-68
2022/10/08 06:08:15;;;;;;;;;4.25;3.00;;;;;;;;5019640;28;45468;-69
2022/10/08 06:10:51;;;;;;;;;2.75;2.75;;;;;;;;5019930;28;45290;-69
2022/10/08 06:13:16;;;;;;;;;5.25;3.75;;;;;;;;5018422;28;45424;-69
2022/10/08 06:15:41;;;;;;;;;4.50;3.50;;;;;;;;5019002;28;46714;-69
2022/10/08 06:18:06;;;;;;;;;7.00;3.75;;;;;;;;5019378;28;45366;-71
2022/10/08 06:20:34;;;;;;;;;10.75;7.75;;;;;;;;5018016;28;45473;-71
2022/10/08 06:23:00;;;;;;;;;4.50;4.00;;;;;;;;4999644;28;45411;-68
2022/10/08 06:25:25;;;;;;;;;8.25;3.75;;;;;;;;4999369;28;46687;-67
2022/10/08 06:27:50;;;;;;;;;4.00;4.00;;;;;;;;5018330;28;45300;-67
2022/10/08 06:30:15;;;;;;;;;4.50;3.00;;;;;;;;5019621;28;45168;-67
2022/10/08 06:32:40;;;;;;;;;5.00;3.25;;;;;;;;5017566;28;45207;-68
2022/10/08 06:35:06;;;;;;;;;5.75;4.00;;;;;;;;5018862;28;46359;-70
2022/10/08 06:37:31;;;;;;;;;6.00;4.50;;;;;;;;5017834;28;45456;-68
2022/10/08 06:39:56;;;;;;;;;4.00;4.00;;;;;;;;5019021;28;45598;-70
2022/10/08 06:42:21;;;;;;;;;4.75;3.50;;;;;;;;5018935;28;45859;-71
2022/10/08 06:44:47;;;;;;;;;4.25;3.25;;;;;;;;5018836;28;45380;-70
2022/10/08 06:47:12;;;;;;;;;6.00;5.00;;;;;;;;5018721;28;45447;-67
2022/10/08 06:49:38;;;;;;;;;5.00;3.00;;;;;;;;5019060;28;45226;-67
2022/10/08 06:52:03;;;;;;;;;5.00;2.00;;;;;;;;5018120;28;45365;-67
2022/10/08 06:54:29;;;;;;;;;55.00;45.33;;;;;;;;5017260;28;46013;-70
2022/10/08 06:56:54;;;;;;;;;3.00;3.00;;;;;;;;5018783;28;45364;-68
2022/10/08 06:59:19;;;;;;;;;5.25;4.00;;;;;;;;5018850;28;45399;-68
2022/10/08 07:01:45;;;;;;;;;4.25;3.50;;;;;;;;5018498;28;45401;-69
2022/10/08 07:04:10;;;;;;;;;6.00;3.50;;;;;;;;5018836;28;45555;-71
2022/10/08 07:06:35;;;;;;;;;4.00;4.00;;;;;;;;5018146;28;45393;-71
2022/10/08 07:09:01;;;;;;;;;4.00;3.00;;;;;;;;5018490;28;45702;-71
2022/10/08 07:11:27;;;;;;;;;4.00;4.00;;;;;;;;5017134;28;45313;-71
2022/10/08 07:13:53;;;;;;;;;4.50;3.50;;;;;;;;5011779;28;45360;-73
2022/10/08 07:16:19;;;;;;;;;7.25;3.50;;;;;;;;5004202;28;45339;-72
2022/10/08 07:18:45;;;;;;;;;7.00;4.00;;;;;;;;5018442;28;45502;-72
2022/10/08 07:21:11;;;;;;;;;4.00;4.00;;;;;;;;5018584;28;45471;-72
2022/10/08 07:23:37;;;;;;;;;4.75;3.50;;;;;;;;5017754;28;46170;-71
2022/10/08 07:26:04;;;;;;;;;6.50;3.00;;;;;;;;5018050;28;45491;-72
2022/10/08 07:28:32;;;;;;;;;3.75;1.75;;;;;;;;5017131;28;45263;-72
2022/10/08 07:31:01;;;;;;;;;4.75;3.50;;;;;;;;5018312;28;45415;-71
2022/10/08 07:33:27;;;;;;;;;3.50;3.50;;;;;;;;5018065;28;46830;-72
2022/10/08 07:35:53;;;;;;;;;5.50;4.25;;;;;;;;5027448;28;45399;-77
2022/10/08 07:38:18;;;;;;;;;5.50;4.75;;;;;;;;5027669;28;45315;-76
2022/10/08 07:40:44;;;;;;;;;5.25;3.75;;;;;;;;5018132;28;45358;-75
2022/10/08 07:43:09;;;;;;;;;4.25;2.00;;;;;;;;5016808;28;47406;-73
2022/10/08 07:45:36;;;;;;;;;13.33;8.67;;;;;;;;5017613;28;45356;-74
2022/10/08 07:48:01;;;;;;;;;5.50;3.00;;;;;;;;5017929;28;45452;-75
2022/10/08 07:50:26;;;;;;;;;7.75;5.50;;;;;;;;5018290;28;45518;-74
2022/10/08 07:52:52;;;;;;;;;7.00;4.00;;;;;;;;5017431;28;45586;-73
2022/10/08 07:55:17;;;;;;;;;3.75;2.00;;;;;;;;5017727;28;45469;-69
2022/10/08 07:57:42;;;;;;;;;3.75;3.00;;;;;;;;5017786;28;45318;-71
2022/10/08 08:00:08;;;;;;;;;3.00;3.00;;;;;;;;5016262;28;45748;-72
2022/10/08 08:02:33;;;;;;;;;6.25;2.00;;;;;;;;5017884;28;46023;-72
2022/10/08 08:04:58;;;;;;;;;4.50;2.50;;;;;;;;5017653;28;45594;-67
2022/10/08 08:07:23;;;;;;;;;3.00;2.00;;;;;;;;5016785;28;45331;-71
2022/10/08 08:09:48;;;;;;;;;4.25;2.00;;;;;;;;5017864;28;45601;-71
2022/10/08 08:12:14;;;;;;;;;3.75;2.25;;;;;;;;5017343;28;46753;-73
2022/10/08 08:14:39;;;;;;;;;11.50;6.75;;;;;;;;5017753;28;45330;-69
2022/10/08 08:17:04;;;;;;;;;4.25;3.25;;;;;;;;5016313;28;45155;-70
2022/10/08 08:19:30;;;;;;;;;4.50;1.50;;;;;;;;5017716;28;45424;-70
2022/10/08 08:21:55;;;;;;;;;3.00;3.00;;;;;;;;5017440;28;47296;-67
2022/10/08 08:24:21;;;;;;;;;2.50;2.25;;;;;;;;5017324;28;45371;-71
2022/10/08 08:26:46;;;;;;;;;1.25;1.25;;;;;;;;5017411;28;45354;-73
2022/10/08 08:29:12;;;;;;;;;8.00;1.50;;;;;;;;5016630;28;45464;-73
2022/10/08 08:31:39;;;;;;;;;2.00;2.00;;;;;;;;5007483;28;47230;-70
2022/10/08 08:34:06;;;;;;;;;4.25;4.25;;;;;;;;5016239;28;45573;-68
2022/10/08 08:36:38;;;;;;;;;4.00;2.00;;;;;;;;5016010;28;45429;-70
2022/10/08 08:39:04;;;;;;;;;2.00;1.00;;;;;;;;5017356;28;45333;-70
2022/10/08 08:41:29;;;;;;;;;1.25;0.25;;;;;;;;5016367;28;46271;-71
2022/10/08 08:44:27;;;;;;;;;4.00;1.25;;;;;;;;5016818;28;45413;-71
2022/10/08 08:46:55;;;;;;;;;1.75;0.50;;;;;;;;4991139;28;45359;-66
2022/10/08 08:49:24;;;;;;;;;3.75;2.00;;;;;;;;4980975;28;45627;-67
2022/10/08 08:51:50;;;;;;;;;5.50;2.50;;;;;;;;4991777;28;45270;-71
2022/10/08 08:54:15;;;;;;;;;1.50;1.50;;;;;;;;4993870;28;45478;-65
2022/10/08 08:56:41;;;;;;;;;1.50;1.50;;;;;;;;4994872;28;45817;-67
2022/10/08 08:59:18;;;;;;;;;3.25;1.00;;;;;;;;4995069;28;45339;-66
2022/10/08 09:01:45;;;;;;;;;2.75;1.50;;;;;;;;4994586;28;45478;-66
2022/10/08 09:04:22;;;;;;;;;2.50;1.50;;;;;;;;4994645;28;45335;-67
2022/10/08 09:06:49;;;;;;;;;6.75;2.25;;;;;;;;4992985;28;45506;-66
2022/10/08 09:09:29;;;;;;;;;2.00;1.25;;;;;;;;4994488;28;45562;-66
2022/10/08 09:11:55;;;;;;;;;1.75;1.75;;;;;;;;4994004;28;47465;-66
2022/10/08 09:14:31;;;;;;;;;3.50;2.00;;;;;;;;4994547;28;45370;-68
2022/10/08 09:16:56;;;;;;;;;10.00;7.33;;;;;;;;4994085;28;45581;-65
2022/10/08 09:19:21;;;;;;;;;2.75;1.25;;;;;;;;4994698;28;45359;-66
2022/10/08 09:21:46;;;;;;;;;6.25;2.00;;;;;;;;4997146;28;45664;-66
2022/10/08 09:24:13;;;;;;;;;1.50;1.50;;;;;;;;5016072;28;45232;-66
2022/10/08 09:26:39;;;;;;;;;0.75;0.75;;;;;;;;5016401;28;45437;-66
2022/10/08 09:29:04;;;;;;;;;2.25;2.25;;;;;;;;5016211;28;45393;-65
2022/10/08 09:31:38;;;;;;;;;6.00;1.50;;;;;;;;5013151;28;47119;-66
2022/10/08 09:34:10;;;;;;;;;1.25;0.75;;;;;;;;5015859;28;45429;-66
2022/10/08 09:36:37;;;;;;;;;1.00;1.00;;;;;;;;5016063;28;45535;-65
2022/10/08 09:39:04;;;;;;;;;7.25;2.75;;;;;;;;5004372;28;45457;-67
2022/10/08 09:41:30;;;;;;;;;2.75;1.50;;;;;;;;5016093;28;46650;-67
2022/10/08 09:44:21;;;;;;;;;1.25;1.25;;;;;;;;5014675;28;45412;-66
2022/10/08 09:46:47;;;;;;;;;4.50;1.75;;;;;;;;5016558;28;45582;-67
2022/10/08 09:49:20;;;;;;;;;4.25;2.25;;;;;;;;5018848;28;45374;-66
2022/10/08 09:51:46;;;;;;;;;5.25;3.00;;;;;;;;5019085;28;46261;-65
2022/10/08 09:54:15;;;;;;;;;1.75;1.50;;;;;;;;5018920;28;45473;-67
2022/10/08 09:56:40;;;;;;;;;2.50;2.00;;;;;;;;5018001;28;45228;-66
2022/10/08 09:59:14;;;;;;;;;0.00;0.00;;;;;;;;5019798;28;45450;-66
2022/10/08 10:01:46;;;;;;;;;2.00;1.00;;;;;;;;5018878;28;46456;-66
2022/10/08 10:04:18;;;;;;;;;1.50;1.50;;;;;;;;5019040;28;45242;-65
2022/10/08 10:06:45;;;;;;;;;1.00;1.00;;;;;;;;5018018;28;46860;-66
2022/10/08 10:09:10;;;;;;;;;4.50;3.25;;;;;;;;5018996;28;45412;-66
2022/10/08 10:11:48;;;;;;;;;3.00;1.00;;;;;;;;5019038;28;45443;-66
2022/10/08 10:14:33;;;;;;;;;1.00;1.00;;;;;;;;5019069;28;45382;-66
2022/10/08 10:17:02;;;;;;;;;2.50;2.00;;;;;;;;5016988;28;45598;-66
2022/10/08 10:19:48;;;;;;;;;2.00;2.00;;;;;;;;5016942;28;45425;-66
2022/10/08 10:22:20;;;;;;;;;4.00;2.50;;;;;;;;5015335;28;45843;-65
2022/10/08 10:25:04;;;;;;;;;3.25;2.00;;;;;;;;5015690;28;45610;-67
2022/10/08 10:27:42;;;;;;;;;4.00;1.50;;;;;;;;5015724;28;45516;-66
2022/10/08 10:30:22;;;;;;;;;3.00;3.00;;;;;;;;5016179;28;45453;-66
2022/10/08 10:32:56;;;;;;;;;5.00;3.25;;;;;;;;5016375;28;45605;-66
2022/10/08 10:35:26;;;;;;;;;2.00;2.00;;;;;;;;5016119;28;45347;-66
2022/10/08 10:37:59;;;;;;;;;3.00;3.00;;;;;;;;5013341;28;45791;-66
2022/10/08 10:40:34;;;;;;;;;3.00;2.00;;;;;;;;5007069;28;45886;-66
2022/10/08 10:43:12;;;;;;;;;5.00;5.00;;;;;;;;5016261;28;45409;-68
2022/10/08 10:45:40;;;;;;;;;8.00;4.67;;;;;;;;5016702;28;45501;-67
2022/10/08 10:48:08;;;;;;;;;4.00;4.00;;;;;;;;5016874;28;45348;-67
2022/10/08 10:50:33;;;;;;;;;4.00;4.00;;;;;;;;5016648;28;45617;-67
2022/10/08 10:53:19;;;;;;;;;4.00;4.00;;;;;;;;5016237;28;45515;-67
2022/10/08 10:56:04;;;;;;;;;11.67;9.33;;;;;;;;4995933;28;45435;-67
2022/10/08 10:58:36;;;;;;;;;7.00;6.00;;;;;;;;4993547;28;45480;-67
2022/10/08 11:01:04;;;;;;;;;7.00;6.00;;;;;;;;4995681;28;46468;-67
2022/10/08 11:03:48;;;;;;;;;6.00;6.00;;;;;;;;4995555;28;45781;-66
2022/10/08 11:06:26;;;;;;;;;3.67;3.67;;;;;;;;4995525;28;45364;-68
2022/10/08 11:08:59;;;;;;;;;4.50;4.00;;;;;;;;4993503;28;45335;-67
2022/10/08 11:11:27;;;;;;;;;5.50;5.00;;;;;;;;4994655;28;45644;-67
2022/10/08 11:14:01;;;;;;;;;5.33;4.00;;;;;;;;4996048;28;46329;-67
2022/10/08 11:16:26;;;;;;;;;5.00;5.00;;;;;;;;4994198;28;45543;-67
2022/10/08 11:18:53;;;;;;;;;5.33;4.00;;;;;;;;4995237;28;45328;-67
2022/10/08 11:21:30;;;;;;;;;3.75;1.00;;;;;;;;4995535;28;45512;-67
2022/10/08 11:23:55;;;;;;;;;4.33;4.33;;;;;;;;4995177;28;45566;-65
2022/10/08 11:26:29;;;;;;;;;3.00;3.00;;;;;;;;4994537;28;45521;-67
2022/10/08 11:29:13;;;;;;;;;6.67;5.33;;;;;;;;4995282;28;45542;-70
2022/10/08 11:31:42;;;;;;;;;5.33;5.33;;;;;;;;4994000;28;45577;-69
2022/10/08 11:34:30;;;;;;;;;3.50;2.75;;;;;;;;5008884;28;46332;-71
2022/10/08 11:36:56;;;;;;;;;3.00;2.50;;;;;;;;5007952;28;45393;-71
2022/10/08 11:39:31;;;;;;;;;4.75;3.00;;;;;;;;5010180;28;45926;-68
2022/10/08 11:42:02;;;;;;;;;8.67;8.67;;;;;;;;5007960;28;45518;-67
2022/10/08 11:44:29;;;;;;;;;2.00;2.00;;;;;;;;5005788;28;46705;-66
2022/10/08 11:47:14;;;;;;;;;3.00;1.00;;;;;;;;5007699;28;45518;-67
2022/10/08 11:49:39;;;;;;;;;2.00;1.00;;;;;;;;5006483;28;45452;-66
2022/10/08 11:52:12;;;;;;;;;2.00;2.00;;;;;;;;5005758;28;45386;-66
2022/10/08 11:54:37;;;;;;;;;2.25;2.00;;;;;;;;5005360;28;46317;-67
2022/10/08 11:57:08;;;;;;;;;2.50;2.50;;;;;;;;5004606;28;45387;-67
2022/10/08 11:59:38;;;;;;;;;3.75;2.00;;;;;;;;5005885;28;45496;-66
2022/10/08 12:02:22;;;;;;;;;3.00;1.75;;;;;;;;5004033;28;45818;-67
2022/10/08 12:04:48;;;;;;;;;26.00;24.00;;;;;;;;5006714;28;45890;-68
2022/10/08 12:07:13;;;;;;;;;8.67;6.00;;;;;;;;5008372;28;45398;-67
2022/10/08 12:09:58;;;;;;;;;3.00;3.00;;;;;;;;5012766;28;45376;-72
2022/10/08 12:12:23;;;;;;;;;2.00;1.25;;;;;;;;5010783;28;45768;-64
2022/10/08 12:14:48;;;;;;;;;1.00;1.00;;;;;;;;5007228;28;46235;-67
2022/10/08 12:17:14;;;;;;;;;8.33;6.33;;;;;;;;5009571;28;45401;-68
2022/10/08 12:19:39;;;;;;;;;2.00;1.00;;;;;;;;5016302;28;45397;-66
2022/10/08 12:22:10;;;;;;;;;0.75;0.75;;;;;;;;5007751;28;45490;-67
2022/10/08 12:24:35;;;;;;;;;2.50;0.50;;;;;;;;5006721;28;46836;-69
2022/10/08 12:27:16;;;;;;;;;0.25;0.25;;;;;;;;5006090;28;45400;-67
2022/10/08 12:29:53;;;;;;;;;4.25;2.00;;;;;;;;5005659;28;45409;-66
2022/10/08 12:32:19;;;;;;;;;1.00;1.00;;;;;;;;5012891;28;45480;-67
2022/10/08 12:34:44;;;;;;;;;0.00;0.00;;;;;;;;5016691;28;46312;-70
2022/10/08 12:37:14;;;;;;;;;1.25;0.00;;;;;;;;5015665;28;45421;-68
2022/10/08 12:39:40;;;;;;;;;0.00;0.00;;;;;;;;5016703;28;45368;-72
2022/10/08 12:42:05;;;;;;;;;2.00;0.00;;;;;;;;5015506;28;45555;-72
2022/10/08 12:44:33;;;;;;;;;1.00;0.00;;;;;;;;5016695;28;46590;-69
2022/10/08 12:47:14;;;;;;;;;1.25;0.50;;;;;;;;5016477;28;45420;-76
2022/10/08 12:49:39;;;;;;;;;1.00;1.00;;;;;;;;5012228;28;45636;-66
2022/10/08 12:52:09;;;;;;;;;0.00;0.00;;;;;;;;5000885;28;45421;-67
2022/10/08 12:54:35;;;;;;;;;1.50;0.00;;;;;;;;5016379;28;46357;-67
2022/10/08 12:57:06;;;;;;;;;1.50;0.50;;;;;;;;5016472;28;45380;-66
2022/10/08 12:59:31;;;;;;;;;0.00;0.00;;;;;;;;5016676;28;45553;-66
2022/10/08 13:01:57;;;;;;;;;2.00;2.00;;;;;;;;5008576;28;45318;-66
2022/10/08 13:04:24;;;;;;;;;1.50;1.00;;;;;;;;5003616;28;46034;-67
2022/10/08 13:06:50;;;;;;;;;2.50;2.50;;;;;;;;5013312;28;46137;-65
2022/10/08 13:09:32;;;;;;;;;0.00;0.00;;;;;;;;5013451;28;45430;-67
2022/10/08 13:11:59;;;;;;;;;1.00;0.00;;;;;;;;5014986;28;45421;-67
2022/10/08 13:14:27;;;;;;;;;3.25;0.00;;;;;;;;5014730;28;45562;-66
2022/10/08 13:16:52;;;;;;;;;0.75;0.00;;;;;;;;5009095;28;45508;-66
2022/10/08 13:19:25;;;;;;;;;1.75;0.00;;;;;;;;5014611;28;45500;-67
2022/10/08 13:21:55;;;;;;;;;0.00;0.00;;;;;;;;5015657;28;45584;-67
2022/10/08 13:24:20;;;;;;;;;2.25;0.00;;;;;;;;5017661;28;46243;-67
2022/10/08 13:26:47;;;;;;;;;0.25;0.25;;;;;;;;5017423;28;45423;-67
2022/10/08 13:29:15;;;;;;;;;0.00;0.00;;;;;;;;5018975;28;45373;-67
2022/10/08 13:31:40;;;;;;;;;0.00;0.00;;;;;;;;5017929;28;45841;-69
2022/10/08 13:34:10;;;;;;;;;5.00;3.00;;;;;;;;5017701;28;45416;-66
2022/10/08 13:36:35;;;;;;;;;3.50;1.00;;;;;;;;5018186;28;45394;-67
2022/10/08 13:39:00;;;;;;;;;1.00;1.00;;;;;;;;5019459;28;45410;-68
2022/10/08 13:41:25;;;;;;;;;0.00;0.00;;;;;;;;5018467;28;45405;-66
2022/10/08 13:43:50;;;;;;;;;3.00;3.00;;;;;;;;5019062;28;46624;-67
2022/10/08 13:46:16;;;;;;;;;0.00;0.00;;;;;;;;5019700;28;45365;-66
2022/10/08 13:48:41;;;;;;;;;2.00;0.00;;;;;;;;5016926;28;45448;-66
2022/10/08 13:51:09;;;;;;;;;1.00;0.00;;;;;;;;5006441;28;45302;-67
2022/10/08 13:53:35;;;;;;;;;2.00;0.00;;;;;;;;4999152;28;46597;-66
2022/10/08 13:56:00;;;;;;;;;0.00;0.00;;;;;;;;5018400;28;45476;-67
2022/10/08 13:58:25;;;;;;;;;1.00;1.00;;;;;;;;5018725;28;45757;-66
2022/10/08 14:00:50;;;;;;;;;0.00;0.00;;;;;;;;5019127;28;45537;-66
2022/10/08 14:03:16;;;;;;;;;3.00;3.00;;;;;;;;5019192;28;46236;-67
2022/10/08 14:05:45;;;;;;;;;0.00;0.00;;;;;;;;5017907;28;45427;-66
2022/10/08 14:08:16;;;;;;;;;1.50;0.00;;;;;;;;5018938;28;45377;-67
2022/10/08 14:10:42;;;;;;;;;1.75;0.00;;;;;;;;5018481;28;45377;-66
2022/10/08 14:13:09;;;;;;;;;1.00;1.00;;;;;;;;5016237;28;47194;-66
2022/10/08 14:15:35;;;;;;;;;1.75;1.00;;;;;;;;5001606;28;45325;-66
2022/10/08 14:18:00;;;;;;;;;2.25;1.00;;;;;;;;5018998;28;45310;-67
2022/10/08 14:20:25;;;;;;;;;1.25;1.00;;;;;;;;5018628;28;45771;-67
2022/10/08 14:22:50;;;;;;;;;0.75;0.75;;;;;;;;5018266;28;46206;-66
2022/10/08 14:25:17;;;;;;;;;2.00;2.00;;;;;;;;5018132;28;45388;-67
2022/10/08 14:27:43;;;;;;;;;0.75;0.00;;;;;;;;5018255;28;45527;-66
2022/10/08 14:30:09;;;;;;;;;1.00;0.00;;;;;;;;5018641;28;45706;-67
2022/10/08 14:32:34;;;;;;;;;0.00;0.00;;;;;;;;5017633;28;46619;-66
2022/10/08 14:34:59;;;;;;;;;0.25;0.25;;;;;;;;5017766;28;45762;-66
2022/10/08 14:37:25;;;;;;;;;0.00;0.00;;;;;;;;5017913;28;45481;-66
2022/10/08 14:39:50;;;;;;;;;3.25;2.75;;;;;;;;5018166;28;45466;-66
2022/10/08 14:42:15;;;;;;;;;2.75;1.25;;;;;;;;5017453;28;46617;-66
2022/10/08 14:44:40;;;;;;;;;1.50;1.00;;;;;;;;5012332;28;45398;-66
2022/10/08 14:47:05;;;;;;;;;1.00;0.50;;;;;;;;5018697;28;45322;-66
2022/10/08 14:49:31;;;;;;;;;3.25;0.75;;;;;;;;5018347;28;45609;-66
2022/10/08 14:51:56;;;;;;;;;2.50;1.00;;;;;;;;5017836;28;45473;-66